Time;durP1;ratioP1;P1;durP2;ratioP2;P2;SDS_P1;SDS_P2;PMS_P1;PMS_P2;Temp;Humidity;BMP_temperature;BMP_pressure;BME280_temperature;BME280_humidity;BME280_pressure;Samples;Min_cycle;Max_cycle;Signal;HPM_P1;HPM_P2
2023/10/05 00:01:07;;;;;;;0.80;0.40;;;;;;;;;;4999396;28;60690;-69
2023/10/05 00:03:34;;;;;;;0.75;0.50;;;;;;;;;;5000403;28;59787;-70
2023/10/05 00:06:13;;;;;;;0.40;0.40;;;;;;;;;;5001494;28;58510;-70
2023/10/05 00:08:40;;;;;;;0.32;0.30;;;;;;;;;;5002377;28;58642;-69
2023/10/05 00:11:06;;;;;;;0.73;0.43;;;;;;;;;;4999676;28;58434;-69
2023/10/05 00:13:33;;;;;;;0.43;0.30;;;;;;;;;;5001770;28;58375;-69
2023/10/05 00:15:59;;;;;;;0.73;0.30;;;;;;;;;;5001713;28;59378;-70
2023/10/05 00:18:25;;;;;;;0.23;0.23;;;;;;;;;;5000988;28;59486;-69
2023/10/05 00:20:53;;;;;;;0.57;0.40;;;;;;;;;;5001291;28;59387;-69
2023/10/05 00:23:19;;;;;;;0.85;0.60;;;;;;;;;;5001630;28;58930;-69
2023/10/05 00:25:44;;;;;;;1.23;0.45;;;;;;;;;;5000146;28;58408;-69
2023/10/05 00:28:11;;;;;;;0.30;0.30;;;;;;;;;;5002397;28;59493;-69
2023/10/05 00:30:37;;;;;;;0.20;0.20;;;;;;;;;;5002072;28;59270;-69
2023/10/05 00:33:04;;;;;;;0.43;0.40;;;;;;;;;;5000520;28;58562;-69
2023/10/05 00:35:33;;;;;;;0.98;0.40;;;;;;;;;;5001989;28;59031;-69
2023/10/05 00:38:20;;;;;;;0.30;0.30;;;;;;;;;;5000685;28;58484;-69
2023/10/05 00:40:56;;;;;;;0.60;0.38;;;;;;;;;;5003769;28;58501;-69
2023/10/05 00:43:24;;;;;;;0.60;0.20;;;;;;;;;;5001317;28;59380;-69
2023/10/05 00:45:50;;;;;;;0.20;0.20;;;;;;;;;;5001135;28;58236;-69
2023/10/05 00:48:29;;;;;;;0.50;0.38;;;;;;;;;;5000470;28;60274;-69
2023/10/05 00:51:23;;;;;;;0.70;0.60;;;;;;;;;;4998657;28;58901;-69
2023/10/05 00:53:42;;;;;;;0.55;0.35;;;;;;;;;;5000987;28;58312;-70
2023/10/05 00:56:08;;;;;;;0.45;0.25;;;;;;;;;;5001185;28;58573;-69
2023/10/05 00:58:42;;;;;;;0.65;0.30;;;;;;;;;;4997704;28;58443;-69
2023/10/05 01:01:15;;;;;;;0.50;0.50;;;;;;;;;;4999107;28;58409;-69
2023/10/05 01:04:12;;;;;;;0.20;0.20;;;;;;;;;;5001651;28;60359;-70
2023/10/05 01:12:17;;;;;;;0.75;0.20;;;;;;;;;;4999015;28;58435;-70
2023/10/05 01:14:46;;;;;;;0.30;0.30;;;;;;;;;;5006091;28;58403;-71
2023/10/05 01:17:12;;;;;;;0.50;0.30;;;;;;;;;;5004454;28;59850;-71
2023/10/05 01:19:39;;;;;;;0.30;0.20;;;;;;;;;;5004904;28;59128;-70
2023/10/05 01:22:08;;;;;;;0.88;0.57;;;;;;;;;;5005446;28;58577;-71
2023/10/05 01:24:36;;;;;;;0.40;0.28;;;;;;;;;;5003913;28;59648;-71
2023/10/05 01:27:03;;;;;;;0.73;0.60;;;;;;;;;;5001723;28;59757;-71
2023/10/05 01:29:28;;;;;;;0.82;0.30;;;;;;;;;;5008758;28;58912;-71
2023/10/05 01:31:53;;;;;;;0.30;0.30;;;;;;;;;;5002949;28;58879;-71
2023/10/05 01:34:20;;;;;;;0.50;0.40;;;;;;;;;;5004172;28;58560;-71
2023/10/05 01:36:45;;;;;;;0.70;0.30;;;;;;;;;;5004426;28;60904;-70
2023/10/05 01:39:11;;;;;;;0.60;0.30;;;;;;;;;;5003335;28;59945;-71
2023/10/05 01:41:37;;;;;;;0.32;0.30;;;;;;;;;;5004843;28;58480;-71
2023/10/05 01:44:03;;;;;;;0.30;0.17;;;;;;;;;;5005046;28;59722;-71
2023/10/05 01:46:31;;;;;;;1.83;0.50;;;;;;;;;;5001873;28;59345;-71
2023/10/05 01:48:56;;;;;;;0.68;0.30;;;;;;;;;;5004539;28;58457;-71
2023/10/05 01:51:23;;;;;;;0.47;0.40;;;;;;;;;;5003259;28;58620;-71
2023/10/05 01:53:52;;;;;;;0.20;0.13;;;;;;;;;;5005038;28;58504;-71
2023/10/05 01:56:23;;;;;;;0.40;0.40;;;;;;;;;;5001836;28;59495;-70
2023/10/05 01:58:54;;;;;;;1.48;0.60;;;;;;;;;;5002727;28;59763;-71
2023/10/05 02:01:26;;;;;;;0.20;0.20;;;;;;;;;;5002903;28;58418;-71
2023/10/05 02:03:57;;;;;;;0.30;0.30;;;;;;;;;;5005096;28;59676;-71
2023/10/05 02:06:22;;;;;;;0.50;0.32;;;;;;;;;;5004780;28;58456;-70
2023/10/05 02:08:47;;;;;;;0.30;0.30;;;;;;;;;;5005369;28;58433;-71
2023/10/05 02:11:23;;;;;;;0.50;0.30;;;;;;;;;;5002674;28;58690;-71
2023/10/05 02:13:49;;;;;;;0.30;0.30;;;;;;;;;;5002234;28;58500;-69
2023/10/05 02:16:16;;;;;;;0.53;0.43;;;;;;;;;;5003871;28;58385;-69
2023/10/05 02:18:42;;;;;;;0.32;0.32;;;;;;;;;;5001347;28;59853;-69
2023/10/05 02:21:17;;;;;;;0.30;0.30;;;;;;;;;;5003954;28;58442;-69
2023/10/05 02:23:44;;;;;;;0.95;0.30;;;;;;;;;;5003639;28;60047;-70
2023/10/05 02:26:33;;;;;;;0.52;0.35;;;;;;;;;;5003854;28;59083;-69
2023/10/05 02:28:57;;;;;;;0.30;0.30;;;;;;;;;;5003231;28;58417;-70
2023/10/05 02:31:22;;;;;;;0.20;0.20;;;;;;;;;;4989022;28;59645;-69
2023/10/05 02:33:47;;;;;;;0.40;0.40;;;;;;;;;;4994733;28;58559;-69
2023/10/05 02:36:26;;;;;;;0.50;0.30;;;;;;;;;;5003181;28;59810;-69
2023/10/05 02:38:53;;;;;;;0.55;0.38;;;;;;;;;;5002582;28;59292;-69
2023/10/05 02:41:24;;;;;;;0.60;0.47;;;;;;;;;;5001472;28;58427;-69
2023/10/05 02:43:53;;;;;;;0.32;0.32;;;;;;;;;;5003988;28;59653;-69
2023/10/05 02:46:20;;;;;;;0.47;0.38;;;;;;;;;;5000941;28;59056;-69
2023/10/05 02:48:45;;;;;;;0.15;0.10;;;;;;;;;;5004007;28;58386;-70
2023/10/05 02:51:13;;;;;;;0.40;0.30;;;;;;;;;;5001795;28;59420;-69
2023/10/05 02:53:41;;;;;;;1.40;0.40;;;;;;;;;;5004304;28;59964;-69
2023/10/05 02:56:13;;;;;;;0.10;0.10;;;;;;;;;;5002421;28;63964;-69
2023/10/05 02:58:38;;;;;;;0.55;0.55;;;;;;;;;;5002140;28;58385;-69
2023/10/05 03:01:09;;;;;;;1.75;0.57;;;;;;;;;;5003049;28;58363;-69
2023/10/05 03:03:34;;;;;;;0.75;0.50;;;;;;;;;;5003626;28;58859;-69
2023/10/05 03:06:00;;;;;;;0.37;0.37;;;;;;;;;;4999102;28;59027;-70
2023/10/05 03:08:29;;;;;;;0.40;0.30;;;;;;;;;;5002365;28;58538;-70
2023/10/05 03:10:54;;;;;;;0.50;0.50;;;;;;;;;;5000798;28;60684;-69
2023/10/05 03:13:20;;;;;;;2.67;0.80;;;;;;;;;;5001496;28;58576;-69
2023/10/05 03:15:45;;;;;;;0.25;0.25;;;;;;;;;;5004711;28;58466;-71
2023/10/05 03:18:15;;;;;;;0.50;0.38;;;;;;;;;;5001804;28;58375;-69
2023/10/05 03:20:40;;;;;;;0.35;0.35;;;;;;;;;;5002581;28;58397;-69
2023/10/05 03:23:05;;;;;;;0.32;0.32;;;;;;;;;;4999919;28;59383;-68
2023/10/05 03:25:33;;;;;;;0.27;0.27;;;;;;;;;;5002069;28;59155;-69
2023/10/05 03:27:59;;;;;;;0.17;0.17;;;;;;;;;;5002247;28;58576;-70
2023/10/05 03:30:30;;;;;;;0.43;0.35;;;;;;;;;;5000959;28;60360;-69
2023/10/05 03:33:00;;;;;;;0.52;0.30;;;;;;;;;;5001817;28;58826;-69
2023/10/05 03:35:26;;;;;;;0.57;0.35;;;;;;;;;;5002571;28;58410;-69
2023/10/05 03:37:52;;;;;;;0.40;0.40;;;;;;;;;;5001482;28;59565;-69
2023/10/05 03:40:25;;;;;;;0.30;0.20;;;;;;;;;;5003214;28;58550;-69
2023/10/05 03:42:58;;;;;;;0.52;0.40;;;;;;;;;;5002508;28;59492;-70
2023/10/05 03:45:23;;;;;;;0.52;0.40;;;;;;;;;;5000744;28;59368;-68
2023/10/05 03:47:49;;;;;;;1.10;0.70;;;;;;;;;;4993054;28;58560;-69
2023/10/05 03:50:17;;;;;;;0.47;0.20;;;;;;;;;;4998352;28;59572;-69
2023/10/05 03:52:44;;;;;;;;;;;;;;;;;;4999721;28;58958;-70
2023/10/05 03:55:10;;;;;;;0.23;0.20;;;;;;;;;;4998780;28;58421;-69
2023/10/05 03:57:36;;;;;;;1.80;0.28;;;;;;;;;;4999130;28;59841;-71
2023/10/05 04:00:16;;;;;;;1.02;0.40;;;;;;;;;;5002547;28;58411;-69
2023/10/05 04:02:43;;;;;;;0.40;0.40;;;;;;;;;;5002458;28;59584;-69
2023/10/05 04:05:09;;;;;;;0.77;0.22;;;;;;;;;;5002391;28;58859;-68
2023/10/05 04:07:35;;;;;;;0.65;0.60;;;;;;;;;;5000924;28;58423;-68
2023/10/05 04:10:02;;;;;;;0.37;0.30;;;;;;;;;;5000529;28;59854;-68
2023/10/05 04:12:31;;;;;;;1.92;0.30;;;;;;;;;;5000755;28;60090;-70
2023/10/05 04:14:57;;;;;;;1.52;0.45;;;;;;;;;;4998334;28;60158;-71
2023/10/05 04:17:22;;;;;;;0.50;0.30;;;;;;;;;;4996576;28;60378;-70
2023/10/05 04:19:48;;;;;;;0.97;0.33;;;;;;;;;;5001497;28;58990;-71
2023/10/05 04:22:14;;;;;;;0.87;0.40;;;;;;;;;;5002837;28;58610;-67
2023/10/05 04:24:41;;;;;;;0.30;0.20;;;;;;;;;;4993937;28;59606;-76
2023/10/05 04:27:07;;;;;;;0.68;0.30;;;;;;;;;;4983723;28;58454;-68
2023/10/05 04:29:32;;;;;;;1.75;0.20;;;;;;;;;;4981838;28;59597;-67
2023/10/05 04:31:58;;;;;;;1.15;0.30;;;;;;;;;;4981275;28;59540;-73
2023/10/05 04:34:27;;;;;;;0.80;0.43;;;;;;;;;;4995552;28;58471;-74
2023/10/05 04:36:54;;;;;;;0.22;0.22;;;;;;;;;;5001133;28;59712;-72
2023/10/05 04:39:29;;;;;;;0.30;0.30;;;;;;;;;;4999855;28;60451;-72
2023/10/05 04:41:56;;;;;;;0.88;0.40;;;;;;;;;;5002474;28;58512;-72
2023/10/05 04:44:21;;;;;;;0.63;0.50;;;;;;;;;;4993936;28;58891;-72
2023/10/05 04:46:49;;;;;;;0.82;0.65;;;;;;;;;;4995610;28;58413;-72
2023/10/05 04:49:14;;;;;;;;;;;;;;;;;;5001418;28;59622;-72
2023/10/05 04:51:41;;;;;;;0.23;0.20;;;;;;;;;;5005439;28;59067;-73
2023/10/05 04:54:10;;;;;;;0.80;0.43;;;;;;;;;;5003767;28;58364;-72
2023/10/05 04:56:40;;;;;;;0.22;0.20;;;;;;;;;;5004650;28;59408;-72
2023/10/05 05:07:06;;;;;;;0.30;0.30;;;;;;;;;;5002367;28;58520;-72
2023/10/05 05:09:35;;;;;;;0.20;0.20;;;;;;;;;;5006070;28;59206;-72
2023/10/05 05:12:03;;;;;;;0.30;0.30;;;;;;;;;;5001647;28;59352;-73
2023/10/05 05:14:32;;;;;;;4.35;0.45;;;;;;;;;;5005406;28;58355;-72
2023/10/05 05:16:58;;;;;;;1.83;0.40;;;;;;;;;;5003477;28;60144;-73
2023/10/05 05:19:23;;;;;;;0.90;0.63;;;;;;;;;;5004065;28;60874;-72
2023/10/05 05:21:48;;;;;;;0.63;0.43;;;;;;;;;;5005171;28;58469;-72
2023/10/05 05:24:14;;;;;;;0.30;0.30;;;;;;;;;;5000566;28;59309;-72
2023/10/05 05:26:39;;;;;;;0.63;0.40;;;;;;;;;;5000988;28;58446;-72
2023/10/05 05:29:04;;;;;;;0.43;0.20;;;;;;;;;;4995682;28;59553;-72
2023/10/05 05:31:30;;;;;;;0.33;0.33;;;;;;;;;;4989060;28;60012;-73
2023/10/05 05:33:56;;;;;;;0.65;0.40;;;;;;;;;;4994031;28;58522;-72
2023/10/05 05:36:21;;;;;;;0.55;0.30;;;;;;;;;;5004059;28;59642;-72
2023/10/05 05:38:47;;;;;;;1.70;0.40;;;;;;;;;;5004704;28;58866;-72
2023/10/05 05:41:15;;;;;;;0.70;0.70;;;;;;;;;;5005390;28;58412;-72
2023/10/05 05:43:41;;;;;;;0.55;0.20;;;;;;;;;;5003197;28;60048;-72
2023/10/05 05:46:11;;;;;;;0.30;0.30;;;;;;;;;;5004329;28;60080;-72
2023/10/05 05:48:36;;;;;;;0.93;0.43;;;;;;;;;;5005598;28;58468;-72
2023/10/05 05:51:13;;;;;;;0.50;0.40;;;;;;;;;;5004410;28;58884;-72
2023/10/05 05:53:38;;;;;;;0.47;0.32;;;;;;;;;;5006095;28;58420;-72
2023/10/05 05:56:04;;;;;;;2.60;0.40;;;;;;;;;;5003955;28;59235;-72
2023/10/05 05:58:29;;;;;;;0.50;0.50;;;;;;;;;;5003039;28;58448;-72
2023/10/05 06:00:57;;;;;;;0.50;0.30;;;;;;;;;;5003656;28;58351;-72
2023/10/05 06:03:24;;;;;;;0.20;0.20;;;;;;;;;;5004520;28;59741;-72
2023/10/05 06:05:50;;;;;;;0.50;0.47;;;;;;;;;;5003430;28;58879;-72
2023/10/05 06:08:16;;;;;;;0.32;0.30;;;;;;;;;;5004855;28;58481;-73
2023/10/05 06:10:43;;;;;;;0.57;0.30;;;;;;;;;;5004508;28;59913;-72
2023/10/05 06:13:11;;;;;;;0.65;0.45;;;;;;;;;;5000767;28;58390;-72
2023/10/05 06:15:36;;;;;;;0.52;0.20;;;;;;;;;;5003691;28;59523;-72
2023/10/05 06:18:02;;;;;;;0.63;0.63;;;;;;;;;;5004308;28;58606;-72
2023/10/05 06:20:27;;;;;;;4.07;0.32;;;;;;;;;;5003480;28;58631;-73
2023/10/05 06:22:52;;;;;;;0.30;0.30;;;;;;;;;;5002595;28;59234;-72
2023/10/05 06:25:18;;;;;;;2.23;0.63;;;;;;;;;;5001289;28;58587;-72
2023/10/05 06:27:44;;;;;;;0.45;0.20;;;;;;;;;;5004738;28;58553;-73
2023/10/05 06:30:10;;;;;;;0.30;0.20;;;;;;;;;;5001936;28;60148;-72
2023/10/05 06:32:36;;;;;;;0.30;0.20;;;;;;;;;;5005798;28;58473;-72
2023/10/05 06:35:02;;;;;;;2.00;0.40;;;;;;;;;;5002738;28;59361;-72
2023/10/05 06:37:27;;;;;;;0.85;0.35;;;;;;;;;;5002075;28;60058;-72
2023/10/05 06:39:53;;;;;;;0.43;0.40;;;;;;;;;;5001913;28;58385;-72
2023/10/05 06:42:18;;;;;;;0.10;0.10;;;;;;;;;;5003866;28;60902;-72
2023/10/05 06:44:44;;;;;;;0.30;0.27;;;;;;;;;;5002669;28;59822;-72
2023/10/05 06:47:18;;;;;;;0.50;0.50;;;;;;;;;;5003751;28;58882;-72
2023/10/05 06:49:43;;;;;;;0.47;0.47;;;;;;;;;;5001862;28;60223;-72
2023/10/05 06:52:08;;;;;;;0.70;0.33;;;;;;;;;;5001283;28;59666;-72
2023/10/05 06:54:34;;;;;;;0.30;0.30;;;;;;;;;;5003377;28;59841;-72
2023/10/05 06:56:59;;;;;;;0.60;0.30;;;;;;;;;;5003748;28;58202;-73
2023/10/05 06:59:25;;;;;;;0.65;0.50;;;;;;;;;;5004014;28;58334;-70
2023/10/05 07:01:52;;;;;;;1.90;0.95;;;;;;;;;;5003647;28;58552;-78
2023/10/05 07:04:20;;;;;;;0.40;0.30;;;;;;;;;;5002664;28;58887;-72
2023/10/05 07:06:46;;;;;;;0.50;0.50;;;;;;;;;;5002852;28;58493;-72
2023/10/05 07:09:11;;;;;;;0.65;0.60;;;;;;;;;;5003147;28;59509;-72
2023/10/05 07:11:37;;;;;;;0.52;0.50;;;;;;;;;;5003387;28;58958;-72
2023/10/05 07:14:03;;;;;;;0.40;0.30;;;;;;;;;;5002541;28;58458;-73
2023/10/05 07:16:29;;;;;;;0.90;0.70;;;;;;;;;;5002020;28;58877;-73
2023/10/05 07:18:54;;;;;;;0.77;0.60;;;;;;;;;;5003574;28;58451;-73
2023/10/05 07:21:20;;;;;;;0.90;0.50;;;;;;;;;;5000825;28;58661;-73
2023/10/05 07:23:46;;;;;;;0.63;0.55;;;;;;;;;;5002445;28;58517;-73
2023/10/05 07:26:11;;;;;;;0.52;0.52;;;;;;;;;;5001232;28;58518;-73
2023/10/05 07:28:37;;;;;;;0.50;0.47;;;;;;;;;;5003892;28;60293;-73
2023/10/05 07:31:05;;;;;;;0.50;0.30;;;;;;;;;;5001350;28;59890;-73
2023/10/05 07:33:30;;;;;;;;;;;;;;;;;;5002835;28;58481;-73
2023/10/05 07:35:56;;;;;;;1.93;0.50;;;;;;;;;;5003100;28;58847;-73
2023/10/05 07:38:26;;;;;;;0.60;0.60;;;;;;;;;;5004109;28;58401;-73
2023/10/05 07:40:51;;;;;;;0.50;0.50;;;;;;;;;;5002993;28;61810;-73
2023/10/05 07:43:16;;;;;;;0.40;0.38;;;;;;;;;;5001601;28;58532;-72
2023/10/05 07:45:41;;;;;;;0.70;0.30;;;;;;;;;;5002104;28;58364;-72
2023/10/05 07:48:06;;;;;;;0.50;0.40;;;;;;;;;;5000947;28;59325;-73
2023/10/05 07:50:32;;;;;;;0.90;0.33;;;;;;;;;;5003467;28;58451;-72
2023/10/05 07:52:58;;;;;;;0.82;0.80;;;;;;;;;;5003112;28;58537;-73
2023/10/05 07:55:23;;;;;;;0.70;0.30;;;;;;;;;;5001864;28;59388;-73
2023/10/05 07:57:48;;;;;;;0.47;0.30;;;;;;;;;;5002198;28;61072;-72
2023/10/05 08:00:13;;;;;;;0.70;0.40;;;;;;;;;;5003022;28;59213;-73
2023/10/05 08:02:39;;;;;;;1.80;0.40;;;;;;;;;;5002425;28;58413;-73
2023/10/05 08:05:05;;;;;;;1.20;0.75;;;;;;;;;;5000593;28;58479;-73
2023/10/05 08:07:31;;;;;;;0.35;0.30;;;;;;;;;;4999224;28;58451;-73
2023/10/05 08:09:56;;;;;;;1.02;0.32;;;;;;;;;;4999053;28;58441;-73
2023/10/05 08:12:21;;;;;;;0.37;0.37;;;;;;;;;;4999845;28;58590;-73
2023/10/05 08:14:46;;;;;;;2.38;0.30;;;;;;;;;;5001874;28;59931;-73
2023/10/05 08:17:12;;;;;;;0.63;0.50;;;;;;;;;;5004165;28;58561;-73
2023/10/05 08:19:37;;;;;;;1.63;0.40;;;;;;;;;;5004204;28;59194;-73
2023/10/05 08:22:02;;;;;;;1.47;0.30;;;;;;;;;;5000542;28;59734;-75
2023/10/05 08:24:28;;;;;;;0.60;0.60;;;;;;;;;;4999493;28;58403;-73
2023/10/05 08:26:56;;;;;;;0.40;0.40;;;;;;;;;;5000455;28;58471;-75
2023/10/05 08:29:22;;;;;;;0.40;0.20;;;;;;;;;;5000261;28;58433;-75
2023/10/05 08:31:48;;;;;;;0.85;0.77;;;;;;;;;;5003180;28;58495;-73
2023/10/05 08:34:20;;;;;;;2.85;1.02;;;;;;;;;;4998460;28;59473;-73
2023/10/05 08:36:45;;;;;;;2.03;0.60;;;;;;;;;;4996232;28;60712;-71
2023/10/05 08:39:13;;;;;;;0.40;0.40;;;;;;;;;;5002187;28;58410;-71
2023/10/05 08:41:41;;;;;;;0.82;0.40;;;;;;;;;;4998686;28;58864;-71
2023/10/05 08:44:26;;;;;;;1.27;0.65;;;;;;;;;;4999266;28;58589;-71
2023/10/05 08:46:52;;;;;;;2.33;0.47;;;;;;;;;;4998703;28;60665;-71
2023/10/05 08:49:17;;;;;;;2.25;0.75;;;;;;;;;;5001527;28;59004;-71
2023/10/05 08:51:44;;;;;;;2.40;0.40;;;;;;;;;;5001222;28;58427;-71
2023/10/05 08:54:11;;;;;;;0.40;0.40;;;;;;;;;;4999591;28;59330;-71
2023/10/05 08:56:40;;;;;;;0.57;0.30;;;;;;;;;;4995266;28;59960;-71
2023/10/05 08:59:07;;;;;;;1.42;0.77;;;;;;;;;;5002081;28;58511;-71
2023/10/05 09:01:33;;;;;;;0.57;0.57;;;;;;;;;;5002125;28;59312;-71
2023/10/05 09:06:43;;;;;;;1.25;0.68;;;;;;;;;;4999414;28;58449;-71
2023/10/05 09:09:13;;;;;;;1.23;0.40;;;;;;;;;;4997967;28;60470;-70
2023/10/05 09:11:39;;;;;;;0.70;0.30;;;;;;;;;;5001574;28;58494;-70
2023/10/05 09:14:27;;;;;;;0.57;0.50;;;;;;;;;;5000961;28;59056;-69
2023/10/05 09:17:03;;;;;;;0.32;0.20;;;;;;;;;;4999809;28;59338;-69
2023/10/05 09:19:29;;;;;;;0.50;0.30;;;;;;;;;;4999635;28;58410;-69
2023/10/05 09:24:26;;;;;;;0.65;0.30;;;;;;;;;;4996884;28;58587;-67
2023/10/05 09:27:12;;;;;;;0.45;0.40;;;;;;;;;;5001162;28;60414;-68
2023/10/05 09:29:39;;;;;;;3.03;0.57;;;;;;;;;;5001771;28;58894;-67
2023/10/05 09:32:08;;;;;;;0.45;0.45;;;;;;;;;;4999761;28;58468;-66
2023/10/05 09:34:33;;;;;;;1.17;0.68;;;;;;;;;;5002926;28;59574;-69
2023/10/05 09:37:02;;;;;;;2.08;1.08;;;;;;;;;;5003989;28;60574;-67
2023/10/05 09:39:27;;;;;;;;;;;;;;;;;;5002533;28;58527;-68
2023/10/05 09:41:52;;;;;;;1.27;1.05;;;;;;;;;;5002228;28;58729;-69
2023/10/05 09:44:18;;;;;;;2.15;0.70;;;;;;;;;;4999189;28;59136;-69
2023/10/05 09:46:43;;;;;;;1.85;0.80;;;;;;;;;;5003588;28;59020;-69
2023/10/05 09:49:12;;;;;;;4.47;0.60;;;;;;;;;;5000753;28;59346;-68
2023/10/05 09:51:42;;;;;;;1.83;0.88;;;;;;;;;;5002004;28;58749;-68
2023/10/05 09:54:10;;;;;;;10.50;1.58;;;;;;;;;;4997294;28;60138;-68
2023/10/05 09:56:35;;;;;;;0.93;0.47;;;;;;;;;;5003256;28;59227;-68
2023/10/05 09:59:01;;;;;;;2.50;0.80;;;;;;;;;;5002316;28;58512;-69
2023/10/05 10:01:27;;;;;;;2.50;0.88;;;;;;;;;;5004127;28;59736;-68
2023/10/05 10:03:53;;;;;;;1.10;0.63;;;;;;;;;;5002666;28;60731;-69
2023/10/05 10:06:19;;;;;;;1.70;0.47;;;;;;;;;;5004595;28;58520;-68
2023/10/05 10:08:55;;;;;;;1.35;0.30;;;;;;;;;;5003511;28;59386;-69
2023/10/05 10:11:24;;;;;;;0.95;0.57;;;;;;;;;;5005875;28;58388;-68
2023/10/05 10:13:59;;;;;;;1.25;0.95;;;;;;;;;;5003196;28;58682;-69
2023/10/05 10:16:26;;;;;;;1.02;0.68;;;;;;;;;;5001160;28;60281;-69
2023/10/05 10:19:09;;;;;;;1.08;0.70;;;;;;;;;;5006057;28;58420;-69
2023/10/05 10:22:26;;;;;;;1.30;0.63;;;;;;;;;;5001252;28;58688;-69
2023/10/05 10:24:28;;;;;;;0.77;0.60;;;;;;;;;;5007781;28;59326;-69
2023/10/05 10:27:08;;;;;;;1.25;0.60;;;;;;;;;;5003685;28;58433;-69
2023/10/05 10:29:42;;;;;;;3.50;0.98;;;;;;;;;;5002764;28;60267;-69
2023/10/05 10:32:18;;;;;;;1.75;0.68;;;;;;;;;;5003954;28;58636;-69
2023/10/05 10:34:49;;;;;;;1.48;0.82;;;;;;;;;;5002538;28;59335;-69
2023/10/05 10:37:34;;;;;;;1.80;0.75;;;;;;;;;;4998004;28;59793;-69
2023/10/05 10:40:00;;;;;;;0.45;0.35;;;;;;;;;;5005818;28;58499;-69
2023/10/05 10:42:45;;;;;;;0.87;0.73;;;;;;;;;;5002144;28;60254;-69
2023/10/05 10:45:14;;;;;;;0.60;0.30;;;;;;;;;;5001109;28;59476;-68
2023/10/05 10:47:45;;;;;;;0.73;0.38;;;;;;;;;;5006101;28;58361;-69
2023/10/05 10:50:22;;;;;;;1.55;0.50;;;;;;;;;;5002779;28;64594;-68
2023/10/05 10:52:50;;;;;;;1.60;0.77;;;;;;;;;;5004462;28;60164;-69
2023/10/05 10:55:15;;;;;;;1.00;0.73;;;;;;;;;;5002392;28;59435;-69
2023/10/05 10:57:44;;;;;;;2.65;0.75;;;;;;;;;;5002805;28;58360;-69
2023/10/05 11:02:55;;;;;;;2.10;0.28;;;;;;;;;;5004155;28;58555;-69
2023/10/05 11:05:24;;;;;;;0.77;0.40;;;;;;;;;;4999670;28;59099;-69
2023/10/05 11:07:49;;;;;;;0.38;0.20;;;;;;;;;;5003335;28;58485;-69
2023/10/05 11:10:18;;;;;;;0.50;0.30;;;;;;;;;;5001933;28;58446;-69
2023/10/05 11:12:53;;;;;;;2.40;0.82;;;;;;;;;;4998342;28;59396;-68
2023/10/05 11:15:18;;;;;;;2.30;0.40;;;;;;;;;;4999388;28;58641;-68
2023/10/05 11:17:45;;;;;;;2.10;0.97;;;;;;;;;;5000870;28;60581;-68
2023/10/05 11:20:23;;;;;;;1.65;0.68;;;;;;;;;;5001130;28;58418;-66
2023/10/05 11:22:48;;;;;;;1.70;0.73;;;;;;;;;;5001864;28;58870;-67
2023/10/05 11:25:16;;;;;;;3.93;0.70;;;;;;;;;;5001792;28;58493;-74
2023/10/05 11:27:47;;;;;;;1.38;0.80;;;;;;;;;;5002983;28;58403;-70
2023/10/05 11:30:18;;;;;;;1.50;0.50;;;;;;;;;;5002395;28;59556;-68
2023/10/05 11:32:44;;;;;;;2.67;0.43;;;;;;;;;;5002548;28;59822;-73
2023/10/05 11:35:13;;;;;;;2.85;0.77;;;;;;;;;;4995676;28;58458;-67
2023/10/05 11:37:38;;;;;;;2.30;0.77;;;;;;;;;;4999176;28;59430;-67
2023/10/05 11:40:05;;;;;;;4.40;0.70;;;;;;;;;;5002611;28;58413;-66
2023/10/05 11:42:35;;;;;;;0.45;0.30;;;;;;;;;;5004167;28;59728;-65
2023/10/05 11:45:04;;;;;;;0.77;0.60;;;;;;;;;;4999553;28;64681;-72
2023/10/05 11:47:41;;;;;;;0.55;0.30;;;;;;;;;;5002736;28;58515;-73
2023/10/05 11:50:07;;;;;;;0.68;0.35;;;;;;;;;;5002087;28;59228;-68
2023/10/05 11:52:32;;;;;;;1.05;0.73;;;;;;;;;;5000727;28;58404;-74
2023/10/05 11:54:57;;;;;;;1.13;0.30;;;;;;;;;;5003601;28;58714;-73
2023/10/05 11:57:23;;;;;;;0.80;0.40;;;;;;;;;;5004647;28;59396;-71
2023/10/05 11:59:48;;;;;;;3.13;0.82;;;;;;;;;;5002907;28;58881;-67
2023/10/05 12:02:13;;;;;;;0.40;0.40;;;;;;;;;;5002445;28;58390;-69
2023/10/05 12:04:39;;;;;;;1.63;0.77;;;;;;;;;;5001483;28;59439;-77
2023/10/05 12:07:05;;;;;;;0.77;0.43;;;;;;;;;;5002511;28;58525;-72
2023/10/05 12:09:34;;;;;;;4.93;0.82;;;;;;;;;;5002385;28;61463;-75
2023/10/05 12:12:02;;;;;;;2.03;0.80;;;;;;;;;;5000842;28;63568;-68
2023/10/05 12:14:28;;;;;;;0.82;0.45;;;;;;;;;;5002211;28;58485;-73
2023/10/05 12:16:56;;;;;;;0.60;0.20;;;;;;;;;;5002734;28;58651;-67
2023/10/05 12:19:27;;;;;;;;;;;;;;;;;;4999261;28;59023;-68
2023/10/05 12:21:53;;;;;;;2.95;0.68;;;;;;;;;;5002460;28;58494;-81
2023/10/05 12:24:18;;;;;;;1.00;0.55;;;;;;;;;;5003628;28;59282;-74
2023/10/05 12:26:44;;;;;;;5.10;0.73;;;;;;;;;;5001494;28;58279;-73
2023/10/05 12:29:12;;;;;;;2.00;0.40;;;;;;;;;;5003121;28;58535;-73
2023/10/05 12:31:38;;;;;;;0.80;0.40;;;;;;;;;;5000883;28;59951;-73
2023/10/05 12:34:08;;;;;;;2.33;0.68;;;;;;;;;;4999770;28;58667;-73
2023/10/05 12:36:34;;;;;;;1.52;0.30;;;;;;;;;;5000001;28;60813;-73
2023/10/05 12:39:00;;;;;;;1.38;0.50;;;;;;;;;;5003005;28;58394;-73
2023/10/05 12:41:36;;;;;;;1.08;0.40;;;;;;;;;;5001225;28;58375;-73
2023/10/05 12:44:02;;;;;;;0.55;0.50;;;;;;;;;;5000425;28;59890;-73
2023/10/05 12:46:32;;;;;;;6.55;1.25;;;;;;;;;;5001710;28;58395;-73
2023/10/05 12:49:01;;;;;;;0.90;0.30;;;;;;;;;;5001316;28;59482;-72
2023/10/05 12:51:29;;;;;;;1.27;0.40;;;;;;;;;;4994142;28;59821;-73
2023/10/05 12:53:54;;;;;;;2.30;0.80;;;;;;;;;;4993513;28;58523;-74
2023/10/05 12:56:19;;;;;;;0.50;0.30;;;;;;;;;;4992201;28;59363;-72
2023/10/05 12:58:45;;;;;;;0.30;0.20;;;;;;;;;;4998473;28;58465;-75
2023/10/05 13:01:12;;;;;;;0.40;0.23;;;;;;;;;;4998309;28;58502;-75
2023/10/05 13:03:37;;;;;;;0.13;0.13;;;;;;;;;;5002591;28;60365;-74
2023/10/05 13:06:06;;;;;;;0.70;0.40;;;;;;;;;;4998097;28;58469;-74
2023/10/05 13:08:31;;;;;;;0.40;0.40;;;;;;;;;;4995633;28;59413;-74
2023/10/05 13:10:57;;;;;;;0.93;0.40;;;;;;;;;;5000198;28;58800;-73
2023/10/05 13:13:23;;;;;;;0.30;0.15;;;;;;;;;;4998994;28;58598;-73
2023/10/05 13:15:50;;;;;;;0.88;0.30;;;;;;;;;;5000790;28;59633;-74
2023/10/05 13:18:17;;;;;;;0.40;0.22;;;;;;;;;;5001061;28;59042;-73
2023/10/05 13:20:43;;;;;;;0.67;0.47;;;;;;;;;;5001505;28;58613;-72
2023/10/05 13:23:11;;;;;;;3.75;0.63;;;;;;;;;;4993625;28;60966;-73
2023/10/05 13:25:36;;;;;;;0.30;0.20;;;;;;;;;;4997807;28;59698;-73
2023/10/05 13:28:03;;;;;;;0.47;0.30;;;;;;;;;;4996950;28;58760;-73
2023/10/05 13:30:40;;;;;;;0.40;0.30;;;;;;;;;;5001119;28;59746;-72
2023/10/05 13:33:08;;;;;;;1.07;0.50;;;;;;;;;;5001627;28;58449;-74
2023/10/05 13:35:35;;;;;;;;;;;;;;;;;;4998456;28;59345;-72
2023/10/05 13:38:06;;;;;;;0.20;0.20;;;;;;;;;;4998005;28;59341;-73
2023/10/05 13:40:34;;;;;;;0.80;0.47;;;;;;;;;;5002075;28;58463;-73
2023/10/05 13:42:59;;;;;;;;;;;;;;;;;;5004940;28;60603;-73
2023/10/05 13:45:25;;;;;;;0.38;0.38;;;;;;;;;;5004156;28;58600;-72
2023/10/05 13:47:52;;;;;;;1.33;0.20;;;;;;;;;;5000939;28;58548;-73
2023/10/05 13:50:18;;;;;;;0.63;0.37;;;;;;;;;;5002603;28;59278;-74
2023/10/05 13:52:48;;;;;;;0.90;0.43;;;;;;;;;;5003480;28;58402;-72
2023/10/05 13:55:14;;;;;;;0.20;0.20;;;;;;;;;;4996074;28;64541;-73
2023/10/05 13:57:39;;;;;;;1.58;0.38;;;;;;;;;;5001928;28;59622;-73
2023/10/05 14:00:13;;;;;;;0.30;0.30;;;;;;;;;;5005730;28;58489;-72
2023/10/05 14:02:38;;;;;;;0.38;0.20;;;;;;;;;;5005203;28;60463;-74
2023/10/05 14:05:04;;;;;;;0.20;0.20;;;;;;;;;;4998091;28;59081;-73
2023/10/05 14:07:29;;;;;;;0.43;0.43;;;;;;;;;;5002112;28;58389;-73
2023/10/05 14:09:56;;;;;;;0.68;0.40;;;;;;;;;;5000433;28;59153;-73
2023/10/05 14:12:21;;;;;;;0.52;0.43;;;;;;;;;;4995845;28;58366;-76
2023/10/05 14:14:46;;;;;;;0.20;0.20;;;;;;;;;;4997414;28;59611;-75
2023/10/05 14:17:11;;;;;;;0.53;0.20;;;;;;;;;;4992571;28;58838;-70
2023/10/05 14:19:36;;;;;;;0.25;0.20;;;;;;;;;;4999246;28;58463;-68
2023/10/05 14:22:04;;;;;;;0.50;0.30;;;;;;;;;;4996916;28;58550;-68
2023/10/05 14:24:32;;;;;;;0.40;0.30;;;;;;;;;;4998503;28;59045;-65
2023/10/05 14:26:57;;;;;;;0.50;0.38;;;;;;;;;;5000629;28;58569;-74
2023/10/05 14:29:24;;;;;;;0.63;0.20;;;;;;;;;;5001225;28;59376;-72
2023/10/05 14:31:53;;;;;;;0.32;0.10;;;;;;;;;;4992615;28;58424;-73
2023/10/05 14:34:18;;;;;;;0.35;0.20;;;;;;;;;;4996656;28;60455;-75
2023/10/05 14:36:44;;;;;;;0.10;0.10;;;;;;;;;;4995444;28;59160;-74
2023/10/05 14:39:21;;;;;;;0.10;0.10;;;;;;;;;;4997100;28;58365;-73
2023/10/05 14:41:48;;;;;;;0.50;0.25;;;;;;;;;;4993575;28;59564;-73
2023/10/05 14:44:13;;;;;;;0.30;0.30;;;;;;;;;;4992528;28;59283;-75
2023/10/05 14:46:39;;;;;;;0.00;0.00;;;;;;;;;;4996111;28;58531;-74
2023/10/05 14:49:04;;;;;;;0.10;0.10;;;;;;;;;;4997102;28;59319;-74
2023/10/05 14:51:30;;;;;;;0.22;0.20;;;;;;;;;;5001023;28;59142;-76
2023/10/05 14:53:55;;;;;;;0.65;0.47;;;;;;;;;;5003974;28;59333;-75
2023/10/05 14:56:21;;;;;;;2.13;0.20;;;;;;;;;;5002680;28;59328;-74
2023/10/05 14:58:47;;;;;;;0.30;0.23;;;;;;;;;;4998836;28;59413;-74
2023/10/05 15:01:13;;;;;;;0.40;0.28;;;;;;;;;;5002967;28;60224;-74
2023/10/05 15:03:38;;;;;;;0.10;0.10;;;;;;;;;;5004261;28;58824;-74
2023/10/05 15:06:04;;;;;;;0.10;0.10;;;;;;;;;;5001507;28;58415;-74
2023/10/05 15:08:30;;;;;;;0.38;0.38;;;;;;;;;;5001520;28;59346;-74
2023/10/05 15:10:56;;;;;;;0.25;0.25;;;;;;;;;;5003903;28;60495;-74